Time;durP1;ratioP1;P1;durP2;ratioP2;P2;SDS_P1;SDS_P2;PMS_P1;PMS_P2;Temp;Humidity;BMP_temperature;BMP_pressure;BME280_temperature;BME280_humidity;BME280_pressure;Samples;Min_cycle;Max_cycle;Signal;HPM_P1;HPM_P2
2023/07/11 00:00:02;;;;;;;0.00;0.00;;;;;;;20.49;64.34;97858.00;5027704;28;20497;-76
2023/07/11 00:02:30;;;;;;;0.10;0.10;;;;;;;20.47;64.66;97866.38;5026060;28;20045;-75
2023/07/11 00:05:00;;;;;;;0.00;0.00;;;;;;;20.19;65.65;97865.69;5032441;28;20061;-74
2023/07/11 00:07:28;;;;;;;0.00;0.00;;;;;;;20.27;65.38;97863.38;5035348;28;20102;-74
2023/07/11 00:09:55;;;;;;;0.00;0.00;;;;;;;20.25;65.30;97859.25;5034024;28;20073;-74
2023/07/11 00:12:28;;;;;;;0.00;0.00;;;;;;;20.23;65.43;97861.41;5039789;28;20128;-74
2023/07/11 00:14:57;;;;;;;0.00;0.00;;;;;;;20.27;65.17;97857.13;5032033;28;20049;-74
2023/07/11 00:17:24;;;;;;;0.00;0.00;;;;;;;20.15;65.89;97858.03;5041481;28;20051;-74
2023/07/11 00:19:53;;;;;;;0.00;0.00;;;;;;;20.06;66.26;97851.41;5033666;28;20065;-74
2023/07/11 00:22:24;;;;;;;0.00;0.00;;;;;;;20.05;66.13;97855.19;5034036;28;20046;-74
2023/07/11 00:24:51;;;;;;;0.00;0.00;;;;;;;20.21;65.25;97845.41;5037478;28;20120;-74
2023/07/11 00:27:20;;;;;;;0.03;0.03;;;;;;;20.02;66.30;97853.00;5030071;28;20053;-74
2023/07/11 00:29:48;;;;;;;0.00;0.00;;;;;;;20.09;65.94;97853.63;5032202;28;20053;-74
2023/07/11 00:32:16;;;;;;;0.00;0.00;;;;;;;19.87;67.09;97852.75;5025198;28;20054;-74
2023/07/11 00:34:44;;;;;;;0.00;0.00;;;;;;;19.94;66.38;97844.44;5024501;28;20580;-74
2023/07/11 00:37:11;;;;;;;0.00;0.00;;;;;;;19.91;66.70;97840.38;5027798;28;20057;-74
2023/07/11 00:39:40;;;;;;;0.10;0.10;;;;;;;19.91;66.63;97853.91;5030887;28;20045;-74
2023/07/11 00:42:10;;;;;;;0.00;0.00;;;;;;;19.89;66.58;97845.19;5025919;28;20046;-74
2023/07/11 00:44:55;;;;;;;0.05;0.05;;;;;;;19.89;66.42;97839.78;5023866;28;20531;-74
2023/07/11 00:47:25;;;;;;;0.10;0.10;;;;;;;19.89;66.41;97841.66;5022354;28;20096;-74
2023/07/11 00:49:54;;;;;;;0.00;0.00;;;;;;;19.92;66.00;97839.28;5024601;28;20045;-74
2023/07/11 00:52:26;;;;;;;0.00;0.00;;;;;;;19.89;66.34;97839.78;5023260;28;20045;-74
2023/07/11 00:54:59;;;;;;;0.08;0.08;;;;;;;19.84;66.52;97831.56;5024642;28;20083;-74
2023/07/11 00:57:29;;;;;;;0.00;0.00;;;;;;;19.81;66.54;97836.69;5022429;28;20037;-74
2023/07/11 00:59:56;;;;;;;0.00;0.00;;;;;;;19.76;66.54;97821.97;5027473;28;20041;-74
2023/07/11 01:02:27;;;;;;;0.00;0.00;;;;;;;19.69;67.00;97826.75;5022530;28;20100;-74
2023/07/11 01:04:55;;;;;;;0.10;0.10;;;;;;;19.66;67.26;97812.88;5027061;28;20144;-74
2023/07/11 01:07:26;;;;;;;0.00;0.00;;;;;;;19.59;67.38;97818.47;5022340;28;20060;-74
2023/07/11 01:09:56;;;;;;;0.00;0.00;;;;;;;19.43;68.02;97817.34;5018687;28;20042;-74
2023/07/11 01:12:24;;;;;;;0.00;0.00;;;;;;;19.34;68.08;97812.59;5026144;28;20141;-74
2023/07/11 01:14:52;;;;;;;0.00;0.00;;;;;;;19.31;68.21;97813.09;5014163;28;20050;-74
2023/07/11 01:17:26;;;;;;;0.10;0.10;;;;;;;19.36;67.80;97807.75;5017318;28;20054;-74
2023/07/11 01:19:55;;;;;;;0.10;0.10;;;;;;;19.30;68.07;97806.88;5022608;28;20385;-73
2023/07/11 01:22:25;;;;;;;0.00;0.00;;;;;;;19.24;68.33;97810.53;5023432;28;20045;-74
2023/07/11 01:24:56;;;;;;;0.00;0.00;;;;;;;19.38;67.58;97805.63;5026149;28;20038;-74
2023/07/11 01:27:24;;;;;;;0.10;0.10;;;;;;;19.25;68.33;97812.19;5020076;28;20424;-74
2023/07/11 01:29:52;;;;;;;0.00;0.00;;;;;;;19.30;67.86;97812.28;5025566;28;20445;-74
2023/07/11 01:32:20;;;;;;;0.00;0.00;;;;;;;19.23;68.21;97808.06;5019194;28;20124;-74
2023/07/11 01:34:48;;;;;;;0.00;0.00;;;;;;;19.03;69.05;97803.94;5023951;28;20033;-74
2023/07/11 01:37:15;;;;;;;0.00;0.00;;;;;;;18.95;69.20;97801.63;5022348;28;20405;-74
2023/07/11 01:39:44;;;;;;;0.00;0.00;;;;;;;18.98;68.96;97800.34;5024214;28;20775;-74
2023/07/11 01:42:12;;;;;;;0.00;0.00;;;;;;;18.91;69.37;97800.47;5022783;28;20065;-74
2023/07/11 01:44:39;;;;;;;0.00;0.00;;;;;;;18.98;68.89;97797.63;5022042;28;20053;-74
2023/07/11 01:47:08;;;;;;;0.03;0.03;;;;;;;19.00;68.83;97790.06;5025894;28;20100;-73
2023/07/11 01:49:36;;;;;;;0.00;0.00;;;;;;;18.81;69.60;97794.06;5021132;28;20042;-73
2023/07/11 01:52:07;;;;;;;0.10;0.10;;;;;;;18.79;69.58;97790.78;5029533;28;20048;-73
2023/07/11 01:54:34;;;;;;;0.10;0.10;;;;;;;18.72;70.06;97784.69;5018251;28;20489;-73
2023/07/11 01:57:07;;;;;;;0.10;0.10;;;;;;;18.69;69.89;97792.22;5028841;28;20417;-73
2023/07/11 01:59:36;;;;;;;0.00;0.00;;;;;;;18.69;69.83;97777.88;5021152;28;20453;-73
2023/07/11 02:02:04;;;;;;;0.00;0.00;;;;;;;18.73;69.69;97780.94;5022638;28;20048;-75
2023/07/11 02:04:32;;;;;;;0.00;0.00;;;;;;;18.75;69.53;97786.91;5019909;28;20037;-75
2023/07/11 02:07:00;;;;;;;0.05;0.05;;;;;;;18.80;69.06;97776.19;5023708;28;20531;-75
2023/07/11 02:09:27;;;;;;;0.00;0.00;;;;;;;18.70;69.32;97783.03;5021492;28;20420;-75
2023/07/11 02:11:55;;;;;;;0.03;0.03;;;;;;;18.70;68.99;97787.63;5022200;28;20033;-75
2023/07/11 02:14:24;;;;;;;0.00;0.00;;;;;;;18.51;69.96;97788.84;5028381;28;20057;-74
2023/07/11 02:16:53;;;;;;;0.00;0.00;;;;;;;18.44;70.20;97788.19;5029022;28;20046;-75
2023/07/11 02:19:23;;;;;;;0.00;0.00;;;;;;;18.48;70.03;97786.66;5027868;28;20045;-75
2023/07/11 02:21:51;;;;;;;0.00;0.00;;;;;;;18.43;70.37;97781.94;5011392;28;20038;-75
2023/07/11 02:24:20;;;;;;;0.00;0.00;;;;;;;18.60;69.48;97790.97;5023887;28;20497;-76
2023/07/11 02:26:48;;;;;;;0.03;0.03;;;;;;;18.64;69.27;97786.72;5025031;28;20453;-75
2023/07/11 02:29:16;;;;;;;0.10;0.10;;;;;;;18.53;69.63;97790.25;5026237;28;20049;-75
2023/07/11 02:31:45;;;;;;;0.10;0.10;;;;;;;18.43;70.12;97791.94;5019610;28;20053;-75
2023/07/11 02:34:12;;;;;;;0.00;0.00;;;;;;;18.34;70.42;97788.78;5018026;28;20090;-75
2023/07/11 02:36:40;;;;;;;0.00;0.00;;;;;;;18.34;70.33;97783.38;5016799;28;20045;-77
2023/07/11 02:39:07;;;;;;;0.00;0.00;;;;;;;18.39;70.30;97794.28;5030080;28;20394;-75
2023/07/11 02:41:35;;;;;;;0.10;0.10;;;;;;;18.32;70.66;97797.13;5020940;28;20064;-75
2023/07/11 02:44:03;;;;;;;0.00;0.00;;;;;;;18.24;70.89;97794.81;5025778;28;20049;-75
2023/07/11 02:46:30;;;;;;;0.00;0.00;;;;;;;18.30;70.61;97796.56;5020626;28;20045;-76
2023/07/11 02:48:59;;;;;;;0.10;0.10;;;;;;;18.30;70.49;97790.31;5020035;28;20497;-75
2023/07/11 02:51:27;;;;;;;0.10;0.10;;;;;;;18.30;70.60;97798.44;5017918;28;20050;-78
2023/07/11 02:53:55;;;;;;;0.00;0.00;;;;;;;18.24;71.09;97794.00;5019902;28;20505;-76
2023/07/11 02:56:23;;;;;;;0.10;0.10;;;;;;;18.35;70.41;97795.84;5020335;28;20053;-75
2023/07/11 02:58:51;;;;;;;0.00;0.00;;;;;;;18.23;71.02;97793.16;5028801;28;20536;-75
2023/07/11 03:01:22;;;;;;;0.10;0.10;;;;;;;18.09;71.38;97797.19;5027225;28;20048;-75
2023/07/11 03:03:50;;;;;;;0.10;0.10;;;;;;;18.19;70.98;97788.47;5014535;28;20069;-75
2023/07/11 03:06:19;;;;;;;0.10;0.10;;;;;;;18.08;71.66;97789.31;5027717;28;20405;-77
2023/07/11 03:08:47;;;;;;;0.08;0.08;;;;;;;18.04;72.08;97785.47;5025464;28;20412;-76
2023/07/11 03:11:14;;;;;;;0.10;0.10;;;;;;;18.10;71.86;97793.41;5023745;28;20050;-78
2023/07/11 03:13:42;;;;;;;0.00;0.00;;;;;;;18.12;71.68;97791.31;5027974;28;20464;-75
2023/07/11 03:16:10;;;;;;;0.00;0.00;;;;;;;18.04;72.39;97790.84;5019981;28;20374;-75
2023/07/11 03:18:38;;;;;;;0.10;0.10;;;;;;;18.12;71.80;97790.50;5020032;28;20054;-75
2023/07/11 03:21:05;;;;;;;0.03;0.03;;;;;;;18.15;71.03;97785.44;5019546;28;20045;-76
2023/07/11 03:23:34;;;;;;;0.00;0.00;;;;;;;18.15;70.82;97790.03;5029074;28;20045;-75
2023/07/11 03:26:02;;;;;;;0.00;0.00;;;;;;;18.16;70.65;97789.78;5023026;28;20428;-76
2023/07/11 03:28:29;;;;;;;0.00;0.00;;;;;;;18.17;70.58;97793.31;5021312;28;20233;-75
2023/07/11 03:30:57;;;;;;;0.00;0.00;;;;;;;18.17;70.63;97785.22;5032146;28;20124;-75
2023/07/11 03:33:25;;;;;;;0.00;0.00;;;;;;;18.10;71.03;97789.91;5021465;28;20057;-75
2023/07/11 03:35:53;;;;;;;0.08;0.08;;;;;;;18.04;71.14;97793.56;5031592;28;20069;-75
2023/07/11 03:38:20;;;;;;;0.10;0.10;;;;;;;18.03;70.93;97778.41;5021270;28;20055;-76
2023/07/11 03:40:52;;;;;;;0.00;0.00;;;;;;;17.97;71.06;97791.78;5039407;28;20580;-78
2023/07/11 03:43:20;;;;;;;0.00;0.00;;;;;;;17.95;71.03;97791.22;5032528;28;20512;-75
2023/07/11 03:45:48;;;;;;;0.08;0.08;;;;;;;17.90;70.98;97783.00;5030561;28;20386;-75
2023/07/11 03:48:18;;;;;;;0.10;0.10;;;;;;;17.85;71.03;97782.91;5026637;28;20056;-75
2023/07/11 03:50:45;;;;;;;0.00;0.00;;;;;;;17.71;71.59;97784.19;5023868;28;20041;-75
2023/07/11 03:53:14;;;;;;;0.00;0.00;;;;;;;17.81;71.29;97776.31;5030526;28;20086;-75
2023/07/11 03:55:42;;;;;;;0.08;0.08;;;;;;;17.85;71.33;97779.38;5031544;28;20038;-75
2023/07/11 03:58:11;;;;;;;0.00;0.00;;;;;;;17.79;71.58;97774.91;5028341;28;20045;-75
2023/07/11 04:00:38;;;;;;;0.10;0.10;;;;;;;17.85;71.28;97777.50;5022802;28;20057;-75
2023/07/11 04:03:06;;;;;;;0.10;0.10;;;;;;;18.05;70.42;97774.41;5019439;28;20042;-75
2023/07/11 04:05:34;;;;;;;0.00;0.00;;;;;;;17.98;70.57;97774.53;5025292;28;20420;-75
2023/07/11 04:08:02;;;;;;;0.10;0.10;;;;;;;17.95;70.79;97772.31;5020250;28;20401;-75
2023/07/11 04:10:29;;;;;;;0.05;0.05;;;;;;;18.07;70.39;97771.44;5028658;28;20060;-75
2023/07/11 04:12:57;;;;;;;0.10;0.10;;;;;;;17.89;71.10;97767.03;5027613;28;20040;-75
2023/07/11 04:15:26;;;;;;;0.00;0.00;;;;;;;17.89;70.98;97769.72;5017422;28;20408;-75
2023/07/11 04:17:53;;;;;;;0.10;0.10;;;;;;;17.88;70.96;97771.59;5022487;28;20046;-74
2023/07/11 04:20:21;;;;;;;0.00;0.00;;;;;;;17.86;71.97;97765.63;5027697;28;20049;-75
2023/07/11 04:22:48;;;;;;;0.10;0.10;;;;;;;17.72;72.77;97771.50;5014180;28;20402;-77
2023/07/11 04:25:16;;;;;;;0.10;0.10;;;;;;;17.72;72.82;97768.81;5027974;28;20053;-75
2023/07/11 04:27:44;;;;;;;0.10;0.10;;;;;;;17.57;73.59;97770.06;5025094;28;20061;-75
2023/07/11 04:30:12;;;;;;;0.10;0.10;;;;;;;17.66;73.10;97772.44;5018735;28;20399;-77
2023/07/11 04:32:41;;;;;;;0.00;0.00;;;;;;;17.76;72.83;97778.06;5024715;28;20132;-75
2023/07/11 04:35:13;;;;;;;0.10;0.10;;;;;;;17.80;72.78;97769.28;5030524;28;20508;-75
2023/07/11 04:37:41;;;;;;;0.00;0.00;;;;;;;17.84;72.76;97775.03;5017857;28;20045;-75
2023/07/11 04:40:10;;;;;;;0.20;0.20;;;;;;;17.89;72.75;97762.44;5032257;28;20046;-75
2023/07/11 04:42:38;;;;;;;0.00;0.00;;;;;;;17.96;72.40;97765.03;5025111;28;20076;-75
2023/07/11 04:45:07;;;;;;;0.10;0.10;;;;;;;18.01;72.39;97764.31;5026079;28;20042;-75
2023/07/11 04:47:35;;;;;;;0.10;0.10;;;;;;;17.97;72.34;97759.38;5016251;28;20052;-75
2023/07/11 04:50:05;;;;;;;0.10;0.10;;;;;;;18.07;72.12;97764.16;5028366;28;20048;-75
2023/07/11 04:52:33;;;;;;;0.00;0.00;;;;;;;18.10;72.06;97754.78;5026750;28;20047;-78
2023/07/11 04:55:00;;;;;;;0.05;0.00;;;;;;;18.11;72.02;97754.53;5024734;28;20038;-75
2023/07/11 04:57:28;;;;;;;0.00;0.00;;;;;;;18.12;72.12;97752.66;5023247;28;20046;-77
2023/07/11 04:59:56;;;;;;;0.10;0.10;;;;;;;18.26;71.88;97754.03;5024716;28;20401;-75
2023/07/11 05:02:23;;;;;;;0.08;0.08;;;;;;;18.32;71.44;97750.38;5023936;28;20048;-75
2023/07/11 05:04:51;;;;;;;0.10;0.10;;;;;;;18.16;72.33;97756.53;5032925;28;20045;-76
2023/07/11 05:07:20;;;;;;;0.10;0.10;;;;;;;18.15;72.61;97752.19;5017168;28;20046;-76
2023/07/11 05:09:48;;;;;;;0.00;0.00;;;;;;;18.17;72.38;97750.88;5002036;28;20042;-75
2023/07/11 05:12:18;;;;;;;0.10;0.10;;;;;;;18.27;72.16;97751.06;5028537;28;20052;-77
2023/07/11 05:14:46;;;;;;;0.10;0.10;;;;;;;18.29;72.15;97753.53;5013470;28;20041;-77
2023/07/11 05:17:13;;;;;;;0.10;0.10;;;;;;;18.42;71.90;97749.75;5024727;28;20049;-76
2023/07/11 05:19:41;;;;;;;0.10;0.10;;;;;;;18.50;71.68;97749.34;5024355;28;20056;-77
2023/07/11 05:22:08;;;;;;;0.00;0.00;;;;;;;18.54;71.44;97743.25;5024239;28;20041;-76
2023/07/11 05:24:37;;;;;;;0.10;0.10;;;;;;;18.66;71.18;97749.44;5025351;28;20390;-76
2023/07/11 05:27:05;;;;;;;0.00;0.00;;;;;;;18.70;71.28;97744.38;5020435;28;20042;-76
2023/07/11 05:29:33;;;;;;;0.00;0.00;;;;;;;18.77;70.85;97744.22;5019783;28;20045;-77
2023/07/11 05:32:01;;;;;;;0.00;0.00;;;;;;;18.80;70.86;97738.31;5021530;28;20037;-76
2023/07/11 05:34:29;;;;;;;0.10;0.10;;;;;;;18.75;71.11;97740.94;5020090;28;20449;-76
2023/07/11 05:36:56;;;;;;;0.08;0.08;;;;;;;18.75;71.26;97744.47;5027358;28;20116;-77
2023/07/11 05:39:24;;;;;;;0.00;0.00;;;;;;;18.83;70.98;97737.84;5027552;28;20125;-76
2023/07/11 05:41:53;;;;;;;0.10;0.10;;;;;;;18.89;70.81;97743.09;5000875;28;20053;-77
2023/07/11 05:44:20;;;;;;;0.10;0.10;;;;;;;18.97;70.62;97736.47;5028641;28;20053;-77
2023/07/11 05:46:48;;;;;;;0.10;0.10;;;;;;;19.05;70.52;97731.47;5020240;28;20042;-77
2023/07/11 05:49:16;;;;;;;0.10;0.10;;;;;;;19.14;70.00;97734.59;5020316;28;20079;-77
2023/07/11 05:51:44;;;;;;;0.00;0.00;;;;;;;19.23;69.66;97737.69;5028372;28;20054;-77
2023/07/11 05:54:11;;;;;;;0.00;0.00;;;;;;;19.33;69.55;97727.84;5000824;28;20543;-76
2023/07/11 05:56:39;;;;;;;0.17;0.10;;;;;;;19.37;69.47;97729.00;5027605;28;20493;-76
2023/07/11 05:59:08;;;;;;;0.10;0.10;;;;;;;19.46;69.36;97726.69;5018300;28;20049;-77
2023/07/11 06:01:35;;;;;;;0.00;0.00;;;;;;;19.60;68.96;97719.91;5029445;28;20050;-76
2023/07/11 06:04:06;;;;;;;0.00;0.00;;;;;;;19.74;68.50;97715.75;5014855;28;20042;-77
2023/07/11 06:06:41;;;;;;;0.10;0.10;;;;;;;19.82;68.24;97721.81;5020850;28;20069;-76
2023/07/11 06:09:10;;;;;;;0.00;0.00;;;;;;;19.90;67.75;97714.09;5020835;28;20100;-78
2023/07/11 06:11:38;;;;;;;0.10;0.10;;;;;;;19.96;67.82;97704.94;5030296;28;20052;-76
2023/07/11 06:14:05;;;;;;;0.00;0.00;;;;;;;20.04;67.92;97711.78;5020690;28;20124;-76
2023/07/11 06:16:34;;;;;;;0.10;0.10;;;;;;;20.13;67.30;97702.19;5021916;28;20061;-77
2023/07/11 06:19:04;;;;;;;0.00;0.00;;;;;;;20.22;67.47;97706.06;5025653;28;20038;-76
2023/07/11 06:21:32;;;;;;;0.00;0.00;;;;;;;20.22;67.49;97699.84;5021646;28;20045;-76
2023/07/11 06:23:59;;;;;;;0.00;0.00;;;;;;;20.35;67.32;97699.47;5027381;28;20129;-77
2023/07/11 06:26:27;;;;;;;0.00;0.00;;;;;;;20.54;66.78;97689.09;5023267;28;20046;-77
2023/07/11 06:28:55;;;;;;;0.00;0.00;;;;;;;20.65;66.46;97698.97;5018701;28;20038;-77
2023/07/11 06:31:23;;;;;;;0.03;0.03;;;;;;;20.74;66.05;97697.44;5023114;28;20103;-77
2023/07/11 06:33:52;;;;;;;0.00;0.00;;;;;;;20.86;66.32;97701.63;5018202;28;20045;-76
2023/07/11 06:36:19;;;;;;;0.08;0.08;;;;;;;21.06;66.12;97694.72;5024609;28;20041;-77
2023/07/11 06:38:47;;;;;;;0.00;0.00;;;;;;;21.21;65.78;97694.88;5022719;28;20121;-76
2023/07/11 06:41:15;;;;;;;0.10;0.10;;;;;;;21.38;65.49;97694.72;5028285;28;20523;-76
2023/07/11 06:43:42;;;;;;;0.10;0.10;;;;;;;21.49;64.45;97693.72;5020011;28;20113;-76
2023/07/11 06:46:10;;;;;;;0.03;0.00;;;;;;;21.59;65.16;97691.06;5022908;28;20060;-77
2023/07/11 06:48:37;;;;;;;0.00;0.00;;;;;;;21.67;64.17;97692.47;5021637;28;20049;-78
2023/07/11 06:51:06;;;;;;;0.00;0.00;;;;;;;21.72;63.43;97692.47;5027478;28;20522;-77
2023/07/11 06:53:35;;;;;;;0.00;0.00;;;;;;;21.75;63.39;97691.94;5031234;28;20064;-77
2023/07/11 06:56:04;;;;;;;0.00;0.00;;;;;;;21.85;63.39;97689.28;5020102;28;20049;-77
2023/07/11 06:58:32;;;;;;;0.08;0.08;;;;;;;21.98;63.00;97691.56;5024415;28;20055;-76
2023/07/11 07:01:02;;;;;;;0.03;0.03;;;;;;;22.12;62.42;97681.00;5019783;28;20080;-76
2023/07/11 07:03:31;;;;;;;0.00;0.00;;;;;;;22.18;62.70;97679.94;5024487;28;20045;-77
2023/07/11 07:06:02;;;;;;;0.00;0.00;;;;;;;22.31;62.18;97676.72;5025482;28;20125;-76
2023/07/11 07:08:32;;;;;;;0.03;0.03;;;;;;;22.34;61.47;97676.19;5016011;28;20050;-77
2023/07/11 07:11:00;;;;;;;0.10;0.10;;;;;;;22.53;61.59;97666.41;5029764;28;20116;-76
2023/07/11 07:13:28;;;;;;;0.10;0.10;;;;;;;22.74;60.80;97663.75;5024480;28;20426;-77
2023/07/11 07:15:57;;;;;;;0.00;0.00;;;;;;;22.94;60.84;97667.34;5023161;28;20193;-76
2023/07/11 07:18:26;;;;;;;0.00;0.00;;;;;;;23.11;59.90;97667.03;5023248;28;20042;-77
2023/07/11 07:20:54;;;;;;;0.00;0.00;;;;;;;23.28;59.50;97661.28;5023501;28;20042;-77
2023/07/11 07:23:39;;;;;;;0.00;0.00;;;;;;;23.61;58.21;97649.81;5023120;28;20037;-76
2023/07/11 07:26:06;;;;;;;0.00;0.00;;;;;;;23.75;58.17;97653.59;5021517;28;20046;-76
2023/07/11 07:28:35;;;;;;;0.00;0.00;;;;;;;23.97;57.45;97650.53;5026152;28;20067;-76
2023/07/11 07:31:05;;;;;;;0.00;0.00;;;;;;;24.23;56.60;97651.25;5026632;28;20425;-76
2023/07/11 07:33:35;;;;;;;0.00;0.00;;;;;;;24.31;56.57;97645.19;5035338;28;20135;-76
2023/07/11 07:36:05;;;;;;;0.00;0.00;;;;;;;24.57;56.52;97639.56;5027299;28;20052;-76
2023/07/11 07:38:33;;;;;;;0.00;0.00;;;;;;;24.62;55.48;97639.53;5026261;28;20063;-76
2023/07/11 07:41:04;;;;;;;0.00;0.00;;;;;;;24.78;54.98;97643.78;5026467;28;20045;-76
2023/07/11 07:43:32;;;;;;;0.00;0.00;;;;;;;25.13;54.21;97640.78;5025552;28;20132;-77
2023/07/11 07:46:01;;;;;;;0.03;0.03;;;;;;;25.39;52.80;97635.09;5032176;28;20056;-76
2023/07/11 07:48:29;;;;;;;0.00;0.00;;;;;;;25.48;51.71;97639.63;5031467;28;20482;-77
2023/07/11 07:51:02;;;;;;;0.00;0.00;;;;;;;25.58;51.79;97638.69;5034884;28;20408;-76
2023/07/11 07:53:30;;;;;;;0.08;0.08;;;;;;;25.80;51.99;97632.75;5028913;28;20076;-76
2023/07/11 07:56:04;;;;;;;0.00;0.00;;;;;;;26.12;50.74;97634.81;5026973;28;20047;-77
2023/07/11 07:58:32;;;;;;;0.00;0.00;;;;;;;26.12;50.41;97637.53;5024123;28;20045;-77
2023/07/11 08:01:11;;;;;;;0.00;0.00;;;;;;;26.23;50.22;97633.56;5024890;28;20083;-77
2023/07/11 08:03:39;;;;;;;0.00;0.00;;;;;;;26.43;49.59;97627.00;5023973;28;20107;-75
2023/07/11 08:06:08;;;;;;;0.10;0.10;;;;;;;26.55;49.39;97625.47;5022012;28;20111;-74
2023/07/11 08:08:44;;;;;;;0.00;0.00;;;;;;;26.55;49.67;97622.72;5028128;28;20137;-74
2023/07/11 08:11:14;;;;;;;0.00;0.00;;;;;;;26.87;48.41;97621.13;5024081;28;20412;-75
2023/07/11 08:13:43;;;;;;;0.00;0.00;;;;;;;26.91;48.47;97613.91;5029857;28;20125;-75
2023/07/11 08:16:14;;;;;;;0.03;0.03;;;;;;;26.94;47.99;97611.44;5023101;28;20053;-75
2023/07/11 08:18:57;;;;;;;0.03;0.03;;;;;;;26.81;48.55;97606.69;5015103;28;20096;-75
2023/07/11 08:21:25;;;;;;;0.00;0.00;;;;;;;27.02;48.66;97605.25;5023395;28;20050;-75
2023/07/11 08:23:53;;;;;;;0.00;0.00;;;;;;;27.31;47.61;97595.97;5026359;28;20095;-75
2023/07/11 08:26:23;;;;;;;0.00;0.00;;;;;;;27.57;46.20;97597.16;5028347;28;20080;-75
2023/07/11 08:28:51;;;;;;;0.00;0.00;;;;;;;27.67;46.04;97596.97;5027404;28;20041;-75
2023/07/11 08:31:20;;;;;;;0.00;0.00;;;;;;;27.82;46.04;97598.59;5031760;28;20120;-75
2023/07/11 08:33:48;;;;;;;0.00;0.00;;;;;;;27.93;45.81;97585.47;5017887;28;20045;-75
2023/07/11 08:36:16;;;;;;;0.00;0.00;;;;;;;28.08;45.62;97591.44;5027651;28;20053;-76
2023/07/11 08:38:45;;;;;;;0.00;0.00;;;;;;;28.21;45.18;97587.06;5024440;28;20508;-75
2023/07/11 08:41:21;;;;;;;0.00;0.00;;;;;;;28.28;45.01;97581.13;5025066;28;20052;-75
2023/07/11 08:43:50;;;;;;;0.03;0.03;;;;;;;28.48;45.17;97572.44;5029601;28;20045;-75
2023/07/11 08:46:19;;;;;;;0.00;0.00;;;;;;;28.58;43.52;97574.13;5024931;28;20037;-75
2023/07/11 08:48:48;;;;;;;0.00;0.00;;;;;;;28.81;43.37;97578.53;5021631;28;20091;-76
2023/07/11 08:51:23;;;;;;;0.00;0.00;;;;;;;28.75;42.88;97572.31;5031074;28;20058;-75
2023/07/11 08:53:55;;;;;;;0.00;0.00;;;;;;;28.89;42.85;97566.78;5018782;28;20038;-75
2023/07/11 08:56:29;;;;;;;0.00;0.00;;;;;;;29.02;42.43;97560.38;5028497;28;20049;-75
2023/07/11 08:59:01;;;;;;;0.00;0.00;;;;;;;29.19;42.36;97556.91;5020756;28;20493;-75
2023/07/11 09:01:36;;;;;;;0.08;0.08;;;;;;;28.98;42.64;97567.63;5028825;28;20099;-75
2023/07/11 09:04:05;;;;;;;0.00;0.00;;;;;;;29.22;42.12;97564.53;5021184;28;20041;-75
2023/07/11 09:06:36;;;;;;;0.00;0.00;;;;;;;29.37;41.43;97555.91;5023216;28;20052;-75
2023/07/11 09:09:04;;;;;;;0.00;0.00;;;;;;;29.35;41.37;97560.88;5024159;28;20072;-75
2023/07/11 09:11:38;;;;;;;0.00;0.00;;;;;;;29.39;41.39;97550.88;5022919;28;20048;-75
2023/07/11 09:14:15;;;;;;;0.00;0.00;;;;;;;29.49;41.11;97541.53;5025198;28;20065;-75
2023/07/11 09:16:47;;;;;;;0.00;0.00;;;;;;;29.50;40.88;97540.41;5018146;28;20077;-75
2023/07/11 09:19:17;;;;;;;;;;;;;;;28.93;41.65;97536.72;5021822;28;20072;-72
2023/07/11 09:21:53;;;;;;;0.00;0.00;;;;;;;28.84;42.39;97537.50;5014773;28;19953;-75
2023/07/11 09:24:31;;;;;;;0.03;0.03;;;;;;;29.13;40.41;97533.44;5024391;28;20049;-75
2023/07/11 09:27:04;;;;;;;0.00;0.00;;;;;;;29.37;38.42;97525.66;5025715;28;20046;-75
2023/07/11 09:29:34;;;;;;;0.00;0.00;;;;;;;28.90;38.32;97515.34;5022381;28;20396;-75
2023/07/11 09:32:03;;;;;;;0.00;0.00;;;;;;;28.79;39.13;97518.38;5020414;28;20042;-75
2023/07/11 09:34:34;;;;;;;0.00;0.00;;;;;;;28.87;39.03;97513.22;5026627;28;20069;-75
2023/07/11 09:37:04;;;;;;;0.00;0.00;;;;;;;29.12;37.85;97518.06;5029645;28;20064;-75
2023/07/11 09:39:35;;;;;;;0.10;0.10;;;;;;;29.12;38.04;97518.06;5029955;28;20138;-75
2023/07/11 09:42:07;;;;;;;0.00;0.00;;;;;;;29.08;36.78;97509.63;5020473;28;20042;-74
2023/07/11 09:44:36;;;;;;;0.00;0.00;;;;;;;29.30;36.15;97510.69;5022130;28;20065;-74
2023/07/11 09:47:15;;;;;;;0.00;0.00;;;;;;;29.21;37.52;97516.97;5022989;28;20083;-75
2023/07/11 09:49:43;;;;;;;0.00;0.00;;;;;;;29.52;37.05;97500.44;5023717;28;20041;-74
2023/07/11 09:52:14;;;;;;;0.00;0.00;;;;;;;29.79;36.84;97504.06;5021845;28;20308;-75
2023/07/11 09:54:47;;;;;;;0.00;0.00;;;;;;;29.85;36.20;97497.28;5023064;28;20045;-74
2023/07/11 09:57:17;;;;;;;0.00;0.00;;;;;;;30.27;35.53;97502.03;5022378;28;20037;-74
2023/07/11 09:59:54;;;;;;;0.00;0.00;;;;;;;30.42;35.33;97488.91;5009277;28;20049;-74
2023/07/11 10:02:31;;;;;;;0.00;0.00;;;;;;;30.72;34.78;97476.06;5025630;28;20045;-75
2023/07/11 10:04:59;;;;;;;0.00;0.00;;;;;;;30.47;35.39;97488.72;5023896;28;20041;-75
2023/07/11 10:07:30;;;;;;;0.00;0.00;;;;;;;30.52;35.15;97477.53;5021144;28;20056;-74
2023/07/11 10:10:02;;;;;;;0.00;0.00;;;;;;;30.12;34.63;97480.47;5023215;28;20112;-75
2023/07/11 10:12:30;;;;;;;0.00;0.00;;;;;;;30.38;34.62;97476.91;5021905;28;20041;-74
2023/07/11 10:15:00;;;;;;;0.00;0.00;;;;;;;30.67;34.31;97468.75;5023370;28;20039;-74
2023/07/11 10:17:33;;;;;;;0.00;0.00;;;;;;;30.81;33.29;97472.13;5022927;28;20076;-75
2023/07/11 10:20:04;;;;;;;0.00;0.00;;;;;;;30.68;33.17;97470.38;5023339;28;20131;-75
2023/07/11 10:22:48;;;;;;;0.00;0.00;;;;;;;30.73;32.73;97466.66;5025509;28;20576;-75
2023/07/11 10:25:17;;;;;;;0.10;0.10;;;;;;;30.61;32.35;97462.63;5022016;28;20054;-74
2023/07/11 10:27:50;;;;;;;0.00;0.00;;;;;;;30.97;32.04;97453.91;5021136;28;20572;-75
2023/07/11 10:30:25;;;;;;;0.00;0.00;;;;;;;31.25;32.00;97459.81;5019532;28;20391;-74
2023/07/11 10:32:56;;;;;;;0.00;0.00;;;;;;;31.29;31.78;97452.50;5023486;28;20056;-74
2023/07/11 10:35:31;;;;;;;0.03;0.03;;;;;;;31.38;31.25;97453.25;5019633;28;20233;-74
2023/07/11 10:38:02;;;;;;;0.03;0.03;;;;;;;31.36;31.20;97443.69;5023210;28;20400;-75
2023/07/11 10:40:31;;;;;;;0.00;0.00;;;;;;;31.46;30.96;97439.75;5021429;28;20038;-75
2023/07/11 10:43:04;;;;;;;0.00;0.00;;;;;;;31.50;31.65;97447.03;5024893;28;20045;-74
2023/07/11 10:45:37;;;;;;;0.00;0.00;;;;;;;31.94;30.61;97442.84;5027000;28;20494;-75
2023/07/11 10:48:21;;;;;;;0.00;0.00;;;;;;;32.27;30.29;97436.59;5027150;28;20045;-75
2023/07/11 10:50:52;;;;;;;0.00;0.00;;;;;;;32.31;30.01;97440.25;5019361;28;20052;-74
2023/07/11 10:53:24;;;;;;;0.00;0.00;;;;;;;32.21;30.07;97447.03;5026878;28;20077;-74
2023/07/11 10:55:57;;;;;;;0.00;0.00;;;;;;;32.34;30.19;97436.84;5020087;28;20536;-74
2023/07/11 10:58:24;;;;;;;0.00;0.00;;;;;;;32.37;29.53;97428.69;5029488;28;20051;-74
2023/07/11 11:01:00;;;;;;;0.00;0.00;;;;;;;32.44;29.32;97420.63;5027391;28;20045;-73
2023/07/11 11:03:37;;;;;;;0.00;0.00;;;;;;;32.58;29.23;97422.28;5025712;28;20041;-74
2023/07/11 11:06:29;;;;;;;0.00;0.00;;;;;;;32.40;28.20;97422.44;5023557;28;20532;-73
2023/07/11 11:09:04;;;;;;;0.00;0.00;;;;;;;32.04;28.53;97414.81;5017427;28;20054;-73
2023/07/11 11:11:42;;;;;;;0.00;0.00;;;;;;;32.53;28.72;97411.44;5025763;28;20042;-73
2023/07/11 11:14:12;;;;;;;0.00;0.00;;;;;;;32.61;27.34;97403.03;5026940;28;20050;-73
2023/07/11 11:16:53;;;;;;;0.00;0.00;;;;;;;32.70;27.76;97402.97;5025832;28;20045;-73
2023/07/11 11:19:29;;;;;;;0.00;0.00;;;;;;;32.94;26.70;97393.88;5025986;28;20065;-74
2023/07/11 11:22:01;;;;;;;0.00;0.00;;;;;;;33.01;27.39;97396.91;5025522;28;20548;-73
2023/07/11 11:24:43;;;;;;;0.00;0.00;;;;;;;33.15;27.19;97392.63;5025211;28;20103;-74
2023/07/11 11:27:20;;;;;;;0.00;0.00;;;;;;;33.36;27.33;97388.94;5025402;28;20120;-74
2023/07/11 11:29:55;;;;;;;0.00;0.00;;;;;;;33.24;27.13;97381.47;5018291;28;20038;-74
2023/07/11 11:32:30;;;;;;;0.00;0.00;;;;;;;32.93;27.67;97373.72;5023286;28;20050;-73
2023/07/11 11:35:14;;;;;;;0.00;0.00;;;;;;;32.87;27.84;97377.88;5027400;28;20050;-73
2023/07/11 11:37:56;;;;;;;0.00;0.00;;;;;;;33.02;27.41;97376.38;5025866;28;20077;-74
2023/07/11 11:40:26;;;;;;;0.00;0.00;;;;;;;32.78;27.40;97383.53;5024822;28;20044;-74
2023/07/11 11:42:57;;;;;;;0.00;0.00;;;;;;;32.94;27.66;97380.06;5026278;28;20044;-74
2023/07/11 11:45:29;;;;;;;0.00;0.00;;;;;;;33.08;27.23;97375.81;5024339;28;20049;-74